sensor_id;sensor_type;location;lat;lon;timestamp;temperature;humidity
50969;DHT22;36982;51.474;7.228;2023-09-08T00:02:03;18.40;21.10
50969;DHT22;36982;51.474;7.228;2023-09-08T00:04:29;18.50;19.40
50969;DHT22;36982;51.474;7.228;2023-09-08T00:06:54;18.40;22.20
50969;DHT22;36982;51.474;7.228;2023-09-08T00:09:20;18.30;25.00
50969;DHT22;36982;51.474;7.228;2023-09-08T00:11:45;18.40;21.80
50969;DHT22;36982;51.474;7.228;2023-09-08T00:14:11;18.40;24.30
50969;DHT22;36982;51.474;7.228;2023-09-08T00:16:37;18.30;26.00
50969;DHT22;36982;51.474;7.228;2023-09-08T00:19:04;18.30;22.10
50969;DHT22;36982;51.474;7.228;2023-09-08T00:21:30;18.20;27.20
50969;DHT22;36982;51.474;7.228;2023-09-08T00:23:56;18.40;26.50
50969;DHT22;36982;51.474;7.228;2023-09-08T00:26:22;18.30;23.90
50969;DHT22;36982;51.474;7.228;2023-09-08T00:28:48;18.30;26.10
50969;DHT22;36982;51.474;7.228;2023-09-08T00:31:14;18.10;31.50
50969;DHT22;36982;51.474;7.228;2023-09-08T00:33:39;18.20;30.80
50969;DHT22;36982;51.474;7.228;2023-09-08T00:36:07;18.20;33.70
50969;DHT22;36982;51.474;7.228;2023-09-08T00:38:33;18.00;39.00
50969;DHT22;36982;51.474;7.228;2023-09-08T00:40:59;18.00;41.90
50969;DHT22;36982;51.474;7.228;2023-09-08T00:43:26;18.10;41.60
50969;DHT22;36982;51.474;7.228;2023-09-08T00:45:52;17.90;43.50
50969;DHT22;36982;51.474;7.228;2023-09-08T00:48:19;17.90;42.50
50969;DHT22;36982;51.474;7.228;2023-09-08T00:50:44;17.90;43.90
50969;DHT22;36982;51.474;7.228;2023-09-08T00:53:10;18.00;42.70
50969;DHT22;36982;51.474;7.228;2023-09-08T00:55:36;17.90;42.50
50969;DHT22;36982;51.474;7.228;2023-09-08T00:58:03;17.90;43.40
50969;DHT22;36982;51.474;7.228;2023-09-08T01:00:29;18.00;43.80
50969;DHT22;36982;51.474;7.228;2023-09-08T01:02:55;17.90;45.40
50969;DHT22;36982;51.474;7.228;2023-09-08T01:05:20;17.90;47.90
50969;DHT22;36982;51.474;7.228;2023-09-08T01:07:47;18.00;51.20
50969;DHT22;36982;51.474;7.228;2023-09-08T01:10:14;17.90;52.00
50969;DHT22;36982;51.474;7.228;2023-09-08T01:12:40;17.90;52.50
50969;DHT22;36982;51.474;7.228;2023-09-08T01:15:06;17.80;53.50
50969;DHT22;36982;51.474;7.228;2023-09-08T01:17:32;17.80;52.90
50969;DHT22;36982;51.474;7.228;2023-09-08T01:20:22;17.80;52.50
50969;DHT22;36982;51.474;7.228;2023-09-08T01:25:31;17.70;54.00
50969;DHT22;36982;51.474;7.228;2023-09-08T01:28:00;17.80;54.90
50969;DHT22;36982;51.474;7.228;2023-09-08T01:30:28;17.80;51.70
50969;DHT22;36982;51.474;7.228;2023-09-08T01:32:54;17.60;52.60
50969;DHT22;36982;51.474;7.228;2023-09-08T01:35:21;17.70;55.00
50969;DHT22;36982;51.474;7.228;2023-09-08T01:37:48;17.70;56.70
50969;DHT22;36982;51.474;7.228;2023-09-08T01:40:14;17.70;56.50
50969;DHT22;36982;51.474;7.228;2023-09-08T01:42:40;17.70;59.90
50969;DHT22;36982;51.474;7.228;2023-09-08T01:45:07;17.60;60.10
50969;DHT22;36982;51.474;7.228;2023-09-08T01:47:34;17.60;61.00
50969;DHT22;36982;51.474;7.228;2023-09-08T01:50:00;17.50;62.50
50969;DHT22;36982;51.474;7.228;2023-09-08T01:52:26;17.50;61.80
50969;DHT22;36982;51.474;7.228;2023-09-08T01:54:52;17.40;65.60
50969;DHT22;36982;51.474;7.228;2023-09-08T01:57:18;17.30;66.70
50969;DHT22;36982;51.474;7.228;2023-09-08T01:59:43;17.30;67.70
50969;DHT22;36982;51.474;7.228;2023-09-08T02:02:10;17.20;69.20
50969;DHT22;36982;51.474;7.228;2023-09-08T02:04:36;17.40;67.00
50969;DHT22;36982;51.474;7.228;2023-09-08T02:07:01;17.20;67.00
50969;DHT22;36982;51.474;7.228;2023-09-08T02:09:36;17.20;66.60
50969;DHT22;36982;51.474;7.228;2023-09-08T02:12:03;17.30;64.90
50969;DHT22;36982;51.474;7.228;2023-09-08T02:14:29;17.40;63.80
50969;DHT22;36982;51.474;7.228;2023-09-08T02:16:55;17.40;64.40
50969;DHT22;36982;51.474;7.228;2023-09-08T02:19:21;17.30;65.30
50969;DHT22;36982;51.474;7.228;2023-09-08T02:21:47;17.20;64.30
50969;DHT22;36982;51.474;7.228;2023-09-08T02:24:13;17.20;68.10
50969;DHT22;36982;51.474;7.228;2023-09-08T02:26:39;17.30;63.90
50969;DHT22;36982;51.474;7.228;2023-09-08T02:29:04;17.30;64.80
50969;DHT22;36982;51.474;7.228;2023-09-08T02:31:30;17.30;65.10
50969;DHT22;36982;51.474;7.228;2023-09-08T02:33:56;17.20;67.10
50969;DHT22;36982;51.474;7.228;2023-09-08T02:36:21;17.20;68.90
50969;DHT22;36982;51.474;7.228;2023-09-08T02:38:54;17.20;70.30
50969;DHT22;36982;51.474;7.228;2023-09-08T02:41:20;17.10;70.50
50969;DHT22;36982;51.474;7.228;2023-09-08T02:43:46;17.10;69.60
50969;DHT22;36982;51.474;7.228;2023-09-08T02:46:12;17.10;70.10
50969;DHT22;36982;51.474;7.228;2023-09-08T02:48:38;17.10;70.90
50969;DHT22;36982;51.474;7.228;2023-09-08T02:51:03;17.10;72.30
50969;DHT22;36982;51.474;7.228;2023-09-08T02:53:29;17.10;73.80
50969;DHT22;36982;51.474;7.228;2023-09-08T02:55:55;17.00;73.80
50969;DHT22;36982;51.474;7.228;2023-09-08T02:58:21;17.00;75.30
50969;DHT22;36982;51.474;7.228;2023-09-08T03:00:47;16.90;76.20
50969;DHT22;36982;51.474;7.228;2023-09-08T03:03:12;16.90;78.30
50969;DHT22;36982;51.474;7.228;2023-09-08T03:05:38;16.90;77.50
50969;DHT22;36982;51.474;7.228;2023-09-08T03:08:04;16.90;77.80
50969;DHT22;36982;51.474;7.228;2023-09-08T03:10:30;16.80;79.60
50969;DHT22;36982;51.474;7.228;2023-09-08T03:13:02;16.80;81.70
50969;DHT22;36982;51.474;7.228;2023-09-08T03:15:28;16.70;83.40
50969;DHT22;36982;51.474;7.228;2023-09-08T03:17:58;16.80;84.40
50969;DHT22;36982;51.474;7.228;2023-09-08T03:20:27;16.80;83.30
50969;DHT22;36982;51.474;7.228;2023-09-08T03:22:54;16.70;84.70
50969;DHT22;36982;51.474;7.228;2023-09-08T03:25:20;16.80;83.90
50969;DHT22;36982;51.474;7.228;2023-09-08T03:27:45;16.80;81.70
50969;DHT22;36982;51.474;7.228;2023-09-08T03:30:11;16.70;82.30
50969;DHT22;36982;51.474;7.228;2023-09-08T03:32:37;16.70;84.80
50969;DHT22;36982;51.474;7.228;2023-09-08T03:35:03;16.60;86.20
50969;DHT22;36982;51.474;7.228;2023-09-08T03:37:31;16.60;84.90
50969;DHT22;36982;51.474;7.228;2023-09-08T03:39:57;16.60;86.60
50969;DHT22;36982;51.474;7.228;2023-09-08T03:42:22;16.60;85.20
50969;DHT22;36982;51.474;7.228;2023-09-08T03:44:48;16.80;84.10
50969;DHT22;36982;51.474;7.228;2023-09-08T03:47:13;16.70;84.30
50969;DHT22;36982;51.474;7.228;2023-09-08T03:49:39;16.70;81.20
50969;DHT22;36982;51.474;7.228;2023-09-08T03:52:05;16.70;80.90
50969;DHT22;36982;51.474;7.228;2023-09-08T03:54:30;16.70;80.60
50969;DHT22;36982;51.474;7.228;2023-09-08T03:56:56;16.60;79.70
50969;DHT22;36982;51.474;7.228;2023-09-08T03:59:21;16.70;78.90
50969;DHT22;36982;51.474;7.228;2023-09-08T04:01:47;16.70;77.80
50969;DHT22;36982;51.474;7.228;2023-09-08T04:04:13;16.70;79.20
50969;DHT22;36982;51.474;7.228;2023-09-08T04:06:38;16.70;80.30
50969;DHT22;36982;51.474;7.228;2023-09-08T04:09:04;16.60;80.00
50969;DHT22;36982;51.474;7.228;2023-09-08T04:11:30;16.60;78.90
50969;DHT22;36982;51.474;7.228;2023-09-08T04:13:55;16.60;82.40
50969;DHT22;36982;51.474;7.228;2023-09-08T04:16:21;16.60;83.30
50969;DHT22;36982;51.474;7.228;2023-09-08T04:18:46;16.60;83.20
50969;DHT22;36982;51.474;7.228;2023-09-08T04:21:12;16.50;82.10
50969;DHT22;36982;51.474;7.228;2023-09-08T04:23:39;16.40;85.20
50969;DHT22;36982;51.474;7.228;2023-09-08T04:26:04;16.50;85.70
50969;DHT22;36982;51.474;7.228;2023-09-08T04:28:30;16.50;81.80
50969;DHT22;36982;51.474;7.228;2023-09-08T04:30:55;16.50;82.50
50969;DHT22;36982;51.474;7.228;2023-09-08T04:33:22;16.50;80.50
50969;DHT22;36982;51.474;7.228;2023-09-08T04:35:48;16.60;81.60
50969;DHT22;36982;51.474;7.228;2023-09-08T04:38:14;16.60;80.00
50969;DHT22;36982;51.474;7.228;2023-09-08T04:40:45;16.60;81.10
50969;DHT22;36982;51.474;7.228;2023-09-08T04:43:10;16.60;79.50
50969;DHT22;36982;51.474;7.228;2023-09-08T04:45:37;16.60;78.50
50969;DHT22;36982;51.474;7.228;2023-09-08T04:48:03;16.60;77.90
50969;DHT22;36982;51.474;7.228;2023-09-08T04:50:29;16.50;76.30
50969;DHT22;36982;51.474;7.228;2023-09-08T04:52:55;16.50;77.10
50969;DHT22;36982;51.474;7.228;2023-09-08T04:55:20;16.60;75.10
50969;DHT22;36982;51.474;7.228;2023-09-08T04:57:46;16.60;77.10
50969;DHT22;36982;51.474;7.228;2023-09-08T05:00:12;16.60;75.50
50969;DHT22;36982;51.474;7.228;2023-09-08T05:02:37;16.70;72.30
50969;DHT22;36982;51.474;7.228;2023-09-08T05:05:03;16.70;72.20
50969;DHT22;36982;51.474;7.228;2023-09-08T05:07:29;16.60;73.00
50969;DHT22;36982;51.474;7.228;2023-09-08T05:09:55;16.60;70.30
50969;DHT22;36982;51.474;7.228;2023-09-08T05:12:23;16.60;70.40
50969;DHT22;36982;51.474;7.228;2023-09-08T05:14:49;16.60;72.00
50969;DHT22;36982;51.474;7.228;2023-09-08T05:17:14;16.60;73.30
50969;DHT22;36982;51.474;7.228;2023-09-08T05:19:40;16.60;72.20
50969;DHT22;36982;51.474;7.228;2023-09-08T05:22:05;16.70;73.70
50969;DHT22;36982;51.474;7.228;2023-09-08T05:24:32;16.50;71.40
50969;DHT22;36982;51.474;7.228;2023-09-08T05:26:58;16.60;72.80
50969;DHT22;36982;51.474;7.228;2023-09-08T05:29:23;16.50;70.50
50969;DHT22;36982;51.474;7.228;2023-09-08T05:31:49;16.60;68.70
50969;DHT22;36982;51.474;7.228;2023-09-08T05:34:15;16.60;64.90
50969;DHT22;36982;51.474;7.228;2023-09-08T05:36:40;16.60;65.30
50969;DHT22;36982;51.474;7.228;2023-09-08T05:39:08;16.80;60.90
50969;DHT22;36982;51.474;7.228;2023-09-08T05:41:34;16.70;62.60
50969;DHT22;36982;51.474;7.228;2023-09-08T05:44:00;16.80;62.30
50969;DHT22;36982;51.474;7.228;2023-09-08T05:46:25;16.90;61.10
50969;DHT22;36982;51.474;7.228;2023-09-08T05:48:51;16.80;60.30
50969;DHT22;36982;51.474;7.228;2023-09-08T05:51:17;16.90;62.20
50969;DHT22;36982;51.474;7.228;2023-09-08T05:53:42;16.90;56.70
50969;DHT22;36982;51.474;7.228;2023-09-08T05:56:08;17.00;55.50
50969;DHT22;36982;51.474;7.228;2023-09-08T05:58:34;17.00;53.50
50969;DHT22;36982;51.474;7.228;2023-09-08T06:01:03;17.10;51.20
50969;DHT22;36982;51.474;7.228;2023-09-08T06:03:29;17.10;46.10
50969;DHT22;36982;51.474;7.228;2023-09-08T06:05:56;17.20;45.60
50969;DHT22;36982;51.474;7.228;2023-09-08T06:08:22;17.20;44.10
50969;DHT22;36982;51.474;7.228;2023-09-08T06:10:47;17.20;41.60
50969;DHT22;36982;51.474;7.228;2023-09-08T06:13:13;17.20;41.80
50969;DHT22;36982;51.474;7.228;2023-09-08T06:15:38;17.30;40.40
50969;DHT22;36982;51.474;7.228;2023-09-08T06:18:04;17.30;44.10
50969;DHT22;36982;51.474;7.228;2023-09-08T06:20:30;17.30;44.70
50969;DHT22;36982;51.474;7.228;2023-09-08T06:22:56;17.50;42.40
50969;DHT22;36982;51.474;7.228;2023-09-08T06:25:21;17.60;37.40
50969;DHT22;36982;51.474;7.228;2023-09-08T06:27:47;17.70;36.30
50969;DHT22;36982;51.474;7.228;2023-09-08T06:30:13;17.70;25.70
50969;DHT22;36982;51.474;7.228;2023-09-08T06:32:43;17.80;26.30
50969;DHT22;36982;51.474;7.228;2023-09-08T06:35:08;18.00;24.40
50969;DHT22;36982;51.474;7.228;2023-09-08T06:37:38;18.00;19.80
50969;DHT22;36982;51.474;7.228;2023-09-08T06:40:06;18.00;21.00
50969;DHT22;36982;51.474;7.228;2023-09-08T06:42:32;18.10;18.40
50969;DHT22;36982;51.474;7.228;2023-09-08T06:44:58;18.00;14.30
50969;DHT22;36982;51.474;7.228;2023-09-08T06:47:24;18.20;14.70
50969;DHT22;36982;51.474;7.228;2023-09-08T06:49:50;18.30;10.50
50969;DHT22;36982;51.474;7.228;2023-09-08T06:52:16;18.30;9.50
50969;DHT22;36982;51.474;7.228;2023-09-08T06:54:42;18.50;10.10
50969;DHT22;36982;51.474;7.228;2023-09-08T06:57:08;18.50;1.60
50969;DHT22;36982;51.474;7.228;2023-09-08T06:59:33;18.60;1.00
50969;DHT22;36982;51.474;7.228;2023-09-08T07:01:59;18.60;1.00
50969;DHT22;36982;51.474;7.228;2023-09-08T07:04:24;18.80;1.00
50969;DHT22;36982;51.474;7.228;2023-09-08T07:06:50;18.90;1.00
50969;DHT22;36982;51.474;7.228;2023-09-08T07:09:17;19.00;1.00
50969;DHT22;36982;51.474;7.228;2023-09-08T07:11:42;19.10;1.00
50969;DHT22;36982;51.474;7.228;2023-09-08T07:14:08;19.20;1.00
50969;DHT22;36982;51.474;7.228;2023-09-08T07:16:33;19.30;1.00
50969;DHT22;36982;51.474;7.228;2023-09-08T07:18:59;19.30;1.00
50969;DHT22;36982;51.474;7.228;2023-09-08T07:21:26;19.50;1.00
50969;DHT22;36982;51.474;7.228;2023-09-08T07:23:52;19.50;1.00
50969;DHT22;36982;51.474;7.228;2023-09-08T07:26:19;19.70;1.00
50969;DHT22;36982;51.474;7.228;2023-09-08T07:28:45;19.70;1.00
50969;DHT22;36982;51.474;7.228;2023-09-08T07:31:11;19.80;1.00
50969;DHT22;36982;51.474;7.228;2023-09-08T07:33:37;19.90;1.00
50969;DHT22;36982;51.474;7.228;2023-09-08T07:36:04;20.00;1.00
50969;DHT22;36982;51.474;7.228;2023-09-08T07:38:31;20.10;1.00
50969;DHT22;36982;51.474;7.228;2023-09-08T07:40:57;20.10;1.00
50969;DHT22;36982;51.474;7.228;2023-09-08T07:43:25;20.30;1.00
50969;DHT22;36982;51.474;7.228;2023-09-08T07:45:51;20.40;1.00
50969;DHT22;36982;51.474;7.228;2023-09-08T07:48:17;20.50;1.00
50969;DHT22;36982;51.474;7.228;2023-09-08T07:50:42;20.60;1.00
50969;DHT22;36982;51.474;7.228;2023-09-08T07:53:08;20.60;1.00
50969;DHT22;36982;51.474;7.228;2023-09-08T07:55:33;20.70;1.00
50969;DHT22;36982;51.474;7.228;2023-09-08T07:58:01;20.70;1.00
50969;DHT22;36982;51.474;7.228;2023-09-08T08:00:26;20.90;1.00
50969;DHT22;36982;51.474;7.228;2023-09-08T08:02:55;21.00;99.90
50969;DHT22;36982;51.474;7.228;2023-09-08T08:05:21;21.10;99.90
50969;DHT22;36982;51.474;7.228;2023-09-08T08:07:47;21.20;99.90
50969;DHT22;36982;51.474;7.228;2023-09-08T08:10:13;21.30;99.90
50969;DHT22;36982;51.474;7.228;2023-09-08T08:12:40;21.40;99.90
50969;DHT22;36982;51.474;7.228;2023-09-08T08:15:06;21.50;99.90
50969;DHT22;36982;51.474;7.228;2023-09-08T08:17:32;21.60;99.90
50969;DHT22;36982;51.474;7.228;2023-09-08T08:19:57;21.70;99.90
50969;DHT22;36982;51.474;7.228;2023-09-08T08:22:33;21.80;99.90
50969;DHT22;36982;51.474;7.228;2023-09-08T08:24:59;21.90;99.90
50969;DHT22;36982;51.474;7.228;2023-09-08T08:27:25;22.00;99.90
50969;DHT22;36982;51.474;7.228;2023-09-08T08:29:50;22.10;99.90
50969;DHT22;36982;51.474;7.228;2023-09-08T08:32:17;22.30;99.90
50969;DHT22;36982;51.474;7.228;2023-09-08T08:34:42;22.30;99.90
50969;DHT22;36982;51.474;7.228;2023-09-08T08:37:08;22.40;99.90
50969;DHT22;36982;51.474;7.228;2023-09-08T08:39:33;22.50;99.90
50969;DHT22;36982;51.474;7.228;2023-09-08T08:42:06;22.60;99.90
50969;DHT22;36982;51.474;7.228;2023-09-08T08:44:33;22.70;99.90
50969;DHT22;36982;51.474;7.228;2023-09-08T08:47:00;22.70;99.90
50969;DHT22;36982;51.474;7.228;2023-09-08T08:49:27;22.80;99.90
50969;DHT22;36982;51.474;7.228;2023-09-08T08:51:54;22.90;99.90
50969;DHT22;36982;51.474;7.228;2023-09-08T08:54:20;23.10;99.90
50969;DHT22;36982;51.474;7.228;2023-09-08T08:56:46;23.10;99.90
50969;DHT22;36982;51.474;7.228;2023-09-08T08:59:13;23.20;99.90
50969;DHT22;36982;51.474;7.228;2023-09-08T09:01:41;23.40;99.90
50969;DHT22;36982;51.474;7.228;2023-09-08T09:04:08;23.40;99.90
50969;DHT22;36982;51.474;7.228;2023-09-08T09:06:34;23.50;99.90
50969;DHT22;36982;51.474;7.228;2023-09-08T09:09:00;23.60;99.90
50969;DHT22;36982;51.474;7.228;2023-09-08T09:11:26;23.60;87.20
50969;DHT22;36982;51.474;7.228;2023-09-08T09:13:52;23.90;33.70
50969;DHT22;36982;51.474;7.228;2023-09-08T09:16:17;23.90;37.60
50969;DHT22;36982;51.474;7.228;2023-09-08T09:18:54;23.80;39.60
50969;DHT22;36982;51.474;7.228;2023-09-08T09:21:24;24.00;54.80
50969;DHT22;36982;51.474;7.228;2023-09-08T09:23:50;24.00;41.30
50969;DHT22;36982;51.474;7.228;2023-09-08T09:26:26;24.10;28.70
50969;DHT22;36982;51.474;7.228;2023-09-08T09:28:52;24.20;1.00
50969;DHT22;36982;51.474;7.228;2023-09-08T09:31:23;24.30;99.90
50969;DHT22;36982;51.474;7.228;2023-09-08T09:34:01;24.30;99.90
50969;DHT22;36982;51.474;7.228;2023-09-08T09:36:28;24.40;99.90
50969;DHT22;36982;51.474;7.228;2023-09-08T09:38:58;24.50;99.90
50969;DHT22;36982;51.474;7.228;2023-09-08T09:41:24;24.60;99.90
50969;DHT22;36982;51.474;7.228;2023-09-08T09:43:49;24.70;57.30
50969;DHT22;36982;51.474;7.228;2023-09-08T09:46:15;24.80;1.00
50969;DHT22;36982;51.474;7.228;2023-09-08T09:48:41;24.80;1.00
50969;DHT22;36982;51.474;7.228;2023-09-08T09:51:16;24.80;99.90
50969;DHT22;36982;51.474;7.228;2023-09-08T09:53:42;25.00;1.00
50969;DHT22;36982;51.474;7.228;2023-09-08T09:56:10;25.30;27.00
50969;DHT22;36982;51.474;7.228;2023-09-08T09:58:37;25.20;1.00
50969;DHT22;36982;51.474;7.228;2023-09-08T10:01:04;25.40;99.90
50969;DHT22;36982;51.474;7.228;2023-09-08T10:03:31;25.50;99.90
50969;DHT22;36982;51.474;7.228;2023-09-08T10:05:59;25.60;99.90
50969;DHT22;36982;51.474;7.228;2023-09-08T10:08:25;25.60;99.90
50969;DHT22;36982;51.474;7.228;2023-09-08T10:10:50;25.70;25.50
50969;DHT22;36982;51.474;7.228;2023-09-08T10:13:27;25.80;1.00
50969;DHT22;36982;51.474;7.228;2023-09-08T10:15:58;25.90;99.90
50969;DHT22;36982;51.474;7.228;2023-09-08T10:18:24;25.90;99.90
50969;DHT22;36982;51.474;7.228;2023-09-08T10:20:57;25.80;99.90
50969;DHT22;36982;51.474;7.228;2023-09-08T10:23:35;25.80;99.90
50969;DHT22;36982;51.474;7.228;2023-09-08T10:26:03;25.90;99.90
50969;DHT22;36982;51.474;7.228;2023-09-08T10:28:32;26.00;99.90
50969;DHT22;36982;51.474;7.228;2023-09-08T10:30:59;26.10;93.60
50969;DHT22;36982;51.474;7.228;2023-09-08T10:33:26;26.10;1.00
50969;DHT22;36982;51.474;7.228;2023-09-08T10:35:52;26.20;1.00
50969;DHT22;36982;51.474;7.228;2023-09-08T10:38:23;26.20;1.00
50969;DHT22;36982;51.474;7.228;2023-09-08T10:40:50;26.20;1.00
50969;DHT22;36982;51.474;7.228;2023-09-08T10:43:15;26.30;1.00
50969;DHT22;36982;51.474;7.228;2023-09-08T10:45:41;26.30;99.90
50969;DHT22;36982;51.474;7.228;2023-09-08T10:48:07;26.40;99.90
50969;DHT22;36982;51.474;7.228;2023-09-08T10:50:34;26.50;99.90
50969;DHT22;36982;51.474;7.228;2023-09-08T10:53:09;26.50;99.90
50969;DHT22;36982;51.474;7.228;2023-09-08T10:55:41;26.50;99.90
50969;DHT22;36982;51.474;7.228;2023-09-08T10:58:43;26.50;91.50
50969;DHT22;36982;51.474;7.228;2023-09-08T11:01:20;26.60;75.70
50969;DHT22;36982;51.474;7.228;2023-09-08T11:03:52;26.70;25.40
50969;DHT22;36982;51.474;7.228;2023-09-08T11:06:20;26.80;24.70
50969;DHT22;36982;51.474;7.228;2023-09-08T11:08:49;26.70;1.00
50969;DHT22;36982;51.474;7.228;2023-09-08T11:11:18;26.80;1.00
50969;DHT22;36982;51.474;7.228;2023-09-08T11:13:44;26.90;99.90
50969;DHT22;36982;51.474;7.228;2023-09-08T11:16:16;26.80;99.90
50969;DHT22;36982;51.474;7.228;2023-09-08T11:18:46;26.90;99.90
50969;DHT22;36982;51.474;7.228;2023-09-08T11:21:12;26.90;99.90
50969;DHT22;36982;51.474;7.228;2023-09-08T11:23:38;26.90;99.90
50969;DHT22;36982;51.474;7.228;2023-09-08T11:26:04;26.90;99.90
50969;DHT22;36982;51.474;7.228;2023-09-08T11:28:31;27.00;99.90
50969;DHT22;36982;51.474;7.228;2023-09-08T11:30:57;27.00;99.90
50969;DHT22;36982;51.474;7.228;2023-09-08T11:33:24;27.10;99.90
50969;DHT22;36982;51.474;7.228;2023-09-08T11:35:53;27.10;99.90
50969;DHT22;36982;51.474;7.228;2023-09-08T11:38:25;27.20;99.90
50969;DHT22;36982;51.474;7.228;2023-09-08T11:40:52;27.30;99.90
50969;DHT22;36982;51.474;7.228;2023-09-08T11:43:19;27.30;99.90
50969;DHT22;36982;51.474;7.228;2023-09-08T11:45:44;27.30;99.90
50969;DHT22;36982;51.474;7.228;2023-09-08T11:48:10;27.30;99.90
50969;DHT22;36982;51.474;7.228;2023-09-08T11:50:36;27.30;99.90
50969;DHT22;36982;51.474;7.228;2023-09-08T11:53:01;27.30;99.90
50969;DHT22;36982;51.474;7.228;2023-09-08T11:55:28;27.50;82.20
50969;DHT22;36982;51.474;7.228;2023-09-08T11:58:00;27.50;62.30
50969;DHT22;36982;51.474;7.228;2023-09-08T12:00:27;27.50;62.00
50969;DHT22;36982;51.474;7.228;2023-09-08T12:02:53;27.40;50.80
50969;DHT22;36982;51.474;7.228;2023-09-08T12:05:26;27.40;41.40
50969;DHT22;36982;51.474;7.228;2023-09-08T12:07:54;27.50;32.50
50969;DHT22;36982;51.474;7.228;2023-09-08T12:10:21;27.50;32.70
50969;DHT22;36982;51.474;7.228;2023-09-08T12:12:54;27.60;43.60
50969;DHT22;36982;51.474;7.228;2023-09-08T12:15:42;27.70;53.10
50969;DHT22;36982;51.474;7.228;2023-09-08T12:18:13;27.70;49.80
50969;DHT22;36982;51.474;7.228;2023-09-08T12:20:41;27.70;29.30
50969;DHT22;36982;51.474;7.228;2023-09-08T12:23:21;27.70;36.40
50969;DHT22;36982;51.474;7.228;2023-09-08T12:25:48;27.80;50.00
50969;DHT22;36982;51.474;7.228;2023-09-08T12:28:15;27.90;12.80
50969;DHT22;36982;51.474;7.228;2023-09-08T12:30:40;27.90;1.00
50969;DHT22;36982;51.474;7.228;2023-09-08T12:33:07;28.00;1.00
50969;DHT22;36982;51.474;7.228;2023-09-08T12:35:34;28.00;1.00
50969;DHT22;36982;51.474;7.228;2023-09-08T12:38:03;28.00;1.00
50969;DHT22;36982;51.474;7.228;2023-09-08T12:40:34;27.90;1.00
50969;DHT22;36982;51.474;7.228;2023-09-08T12:43:00;27.80;1.00
50969;DHT22;36982;51.474;7.228;2023-09-08T12:45:26;27.90;1.00
50969;DHT22;36982;51.474;7.228;2023-09-08T12:47:53;28.00;1.00
50969;DHT22;36982;51.474;7.228;2023-09-08T12:50:20;28.00;1.00
50969;DHT22;36982;51.474;7.228;2023-09-08T12:52:46;28.00;1.00
50969;DHT22;36982;51.474;7.228;2023-09-08T12:55:12;28.00;1.00
50969;DHT22;36982;51.474;7.228;2023-09-08T12:57:37;28.00;1.00
50969;DHT22;36982;51.474;7.228;2023-09-08T13:00:03;27.90;99.90
50969;DHT22;36982;51.474;7.228;2023-09-08T13:02:29;27.90;99.90
50969;DHT22;36982;51.474;7.228;2023-09-08T13:04:55;27.90;99.90
50969;DHT22;36982;51.474;7.228;2023-09-08T13:07:21;27.90;99.90
50969;DHT22;36982;51.474;7.228;2023-09-08T13:09:47;27.90;99.90
50969;DHT22;36982;51.474;7.228;2023-09-08T13:12:13;28.00;99.90
50969;DHT22;36982;51.474;7.228;2023-09-08T13:14:39;28.00;99.90
50969;DHT22;36982;51.474;7.228;2023-09-08T13:17:05;28.00;99.90
50969;DHT22;36982;51.474;7.228;2023-09-08T13:19:32;28.00;99.90
50969;DHT22;36982;51.474;7.228;2023-09-08T13:21:58;28.00;99.90
50969;DHT22;36982;51.474;7.228;2023-09-08T13:24:23;28.00;99.90
50969;DHT22;36982;51.474;7.228;2023-09-08T13:26:49;28.00;99.90
50969;DHT22;36982;51.474;7.228;2023-09-08T13:29:16;28.10;99.90
50969;DHT22;36982;51.474;7.228;2023-09-08T13:31:42;28.10;99.90
50969;DHT22;36982;51.474;7.228;2023-09-08T13:34:08;28.10;99.90
50969;DHT22;36982;51.474;7.228;2023-09-08T13:36:33;28.10;99.90
50969;DHT22;36982;51.474;7.228;2023-09-08T13:38:59;28.20;99.90
50969;DHT22;36982;51.474;7.228;2023-09-08T13:41:29;28.20;99.90
50969;DHT22;36982;51.474;7.228;2023-09-08T13:44:08;28.20;99.90
50969;DHT22;36982;51.474;7.228;2023-09-08T13:46:33;28.20;99.90
50969;DHT22;36982;51.474;7.228;2023-09-08T13:48:59;28.10;99.90
50969;DHT22;36982;51.474;7.228;2023-09-08T13:51:24;28.10;99.90
50969;DHT22;36982;51.474;7.228;2023-09-08T13:53:50;28.10;99.90
50969;DHT22;36982;51.474;7.228;2023-09-08T13:56:16;28.10;99.90
50969;DHT22;36982;51.474;7.228;2023-09-08T13:58:41;28.10;99.90
50969;DHT22;36982;51.474;7.228;2023-09-08T14:01:10;28.00;99.90
50969;DHT22;36982;51.474;7.228;2023-09-08T14:03:36;28.10;99.90
50969;DHT22;36982;51.474;7.228;2023-09-08T14:06:01;28.10;99.90
50969;DHT22;36982;51.474;7.228;2023-09-08T14:08:27;28.20;99.90
50969;DHT22;36982;51.474;7.228;2023-09-08T14:10:53;28.10;99.90
50969;DHT22;36982;51.474;7.228;2023-09-08T14:13:19;28.10;99.90
50969;DHT22;36982;51.474;7.228;2023-09-08T14:15:45;28.00;99.90
50969;DHT22;36982;51.474;7.228;2023-09-08T14:18:10;28.10;99.90
50969;DHT22;36982;51.474;7.228;2023-09-08T14:20:36;28.10;99.90
50969;DHT22;36982;51.474;7.228;2023-09-08T14:23:02;28.10;99.90
50969;DHT22;36982;51.474;7.228;2023-09-08T14:25:27;28.10;99.90
50969;DHT22;36982;51.474;7.228;2023-09-08T14:27:53;28.10;99.90
50969;DHT22;36982;51.474;7.228;2023-09-08T14:30:18;28.10;99.90
50969;DHT22;36982;51.474;7.228;2023-09-08T14:32:44;28.20;99.90
50969;DHT22;36982;51.474;7.228;2023-09-08T14:35:10;28.10;99.90
50969;DHT22;36982;51.474;7.228;2023-09-08T14:37:35;28.10;99.90
50969;DHT22;36982;51.474;7.228;2023-09-08T14:40:01;28.00;99.90
50969;DHT22;36982;51.474;7.228;2023-09-08T14:42:27;28.00;99.90
50969;DHT22;36982;51.474;7.228;2023-09-08T14:44:53;28.00;99.90
50969;DHT22;36982;51.474;7.228;2023-09-08T14:47:18;28.00;99.90
50969;DHT22;36982;51.474;7.228;2023-09-08T14:49:44;28.00;99.90
50969;DHT22;36982;51.474;7.228;2023-09-08T14:52:09;28.00;99.90
50969;DHT22;36982;51.474;7.228;2023-09-08T14:54:35;27.90;99.90
50969;DHT22;36982;51.474;7.228;2023-09-08T14:57:00;27.90;99.90
50969;DHT22;36982;51.474;7.228;2023-09-08T14:59:26;27.90;99.90
50969;DHT22;36982;51.474;7.228;2023-09-08T15:01:52;28.00;99.90
50969;DHT22;36982;51.474;7.228;2023-09-08T15:04:19;28.00;99.90
50969;DHT22;36982;51.474;7.228;2023-09-08T15:06:44;27.90;99.90
50969;DHT22;36982;51.474;7.228;2023-09-08T15:09:10;28.00;99.90
50969;DHT22;36982;51.474;7.228;2023-09-08T15:11:36;28.00;99.90
50969;DHT22;36982;51.474;7.228;2023-09-08T15:14:03;28.00;99.90
50969;DHT22;36982;51.474;7.228;2023-09-08T15:16:29;28.00;99.90
50969;DHT22;36982;51.474;7.228;2023-09-08T15:18:54;27.90;99.90
50969;DHT22;36982;51.474;7.228;2023-09-08T15:21:20;27.90;99.90
50969;DHT22;36982;51.474;7.228;2023-09-08T15:23:51;27.90;99.90
50969;DHT22;36982;51.474;7.228;2023-09-08T15:26:17;27.90;99.90
50969;DHT22;36982;51.474;7.228;2023-09-08T15:28:42;27.90;99.90
50969;DHT22;36982;51.474;7.228;2023-09-08T15:31:08;27.90;99.90
50969;DHT22;36982;51.474;7.228;2023-09-08T15:33:37;28.00;99.90